createdAt,value
2023-02-22T00:03:18.006Z,5.00
2023-02-22T00:08:30.617Z,5.30
2023-02-22T00:13:33.833Z,3.90
2023-02-22T00:18:37.980Z,4.40
2023-02-22T00:23:49.899Z,4.60
2023-02-22T00:28:54.437Z,4.30
2023-02-22T00:33:57.430Z,6.00
2023-02-22T00:39:00.336Z,4.00
2023-02-22T00:44:03.346Z,5.70
2023-02-22T00:49:06.860Z,5.90
2023-02-22T00:54:10.837Z,3.50
2023-02-22T00:59:13.796Z,6.70
2023-02-22T01:04:18.550Z,5.40
2023-02-22T01:09:22.520Z,7.40
2023-02-22T01:14:27.988Z,5.90
2023-02-22T01:19:32.430Z,4.40
2023-02-22T01:24:35.380Z,2.20
2023-02-22T01:29:39.560Z,4.40
2023-02-22T01:34:42.721Z,3.40
2023-02-22T01:39:45.938Z,5.10
2023-02-22T01:45:28.053Z,5.40
2023-02-22T01:50:35.302Z,5.90
2023-02-22T01:55:39.176Z,3.20
2023-02-22T02:00:44.877Z,4.30
2023-02-22T02:05:50.216Z,3.30
2023-02-22T02:10:55.169Z,3.70
2023-02-22T02:15:58.280Z,4.80
2023-02-22T02:21:29.038Z,3.70
2023-02-22T02:26:53.784Z,4.60
2023-02-22T02:32:18.598Z,3.10
2023-02-22T02:37:40.109Z,4.00
2023-02-22T02:42:51.409Z,4.60
2023-02-22T02:47:59.023Z,5.70
2023-02-22T02:53:08.277Z,5.70
2023-02-22T02:58:18.288Z,4.40
2023-02-22T03:03:23.818Z,5.40
2023-02-22T03:08:39.946Z,6.30
2023-02-22T03:14:37.308Z,5.50
2023-02-22T03:19:43.185Z,4.70
2023-02-22T03:24:53.974Z,6.30
2023-02-22T03:30:02.406Z,4.00
2023-02-22T03:35:12.176Z,5.30
2023-02-22T03:40:36.707Z,3.60
2023-02-22T03:45:43.667Z,8.60
2023-02-22T03:50:47.630Z,6.00
2023-02-22T03:55:55.743Z,5.80
2023-02-22T04:00:59.284Z,6.00
2023-02-22T04:12:38.316Z,5.90
2023-02-22T04:17:41.885Z,4.70
2023-02-22T04:22:44.885Z,4.40
2023-02-22T04:27:48.101Z,4.00
2023-02-22T04:32:51.212Z,8.60
2023-02-22T04:37:54.208Z,5.90
2023-02-22T04:42:57.319Z,10.10
2023-02-22T04:48:00.523Z,7.80
2023-02-22T04:53:03.845Z,7.50
2023-02-22T04:58:09.374Z,6.00
2023-02-22T05:03:12.628Z,9.60
2023-02-22T05:08:15.725Z,6.70
2023-02-22T05:13:18.941Z,7.50
2023-02-22T05:18:21.944Z,4.90
2023-02-22T05:23:24.947Z,4.20
2023-02-22T05:28:28.058Z,3.70
2023-02-22T05:33:31.063Z,5.90
2023-02-22T05:38:34.873Z,6.60
2023-02-22T05:43:38.908Z,4.40
2023-02-22T05:48:41.827Z,4.90
2023-02-22T05:53:44.830Z,4.40
2023-02-22T05:58:48.044Z,5.20
2023-02-22T06:03:52.048Z,6.60
2023-02-22T06:08:54.979Z,6.20
2023-02-22T06:13:58.083Z,4.60
2023-02-22T06:19:01.089Z,11.10
2023-02-22T06:24:04.717Z,6.90
2023-02-22T06:29:08.946Z,9.00
2023-02-22T06:34:12.052Z,8.20
2023-02-22T06:39:16.808Z,12.10
2023-02-22T06:44:19.804Z,9.30
2023-02-22T06:49:23.021Z,12.60
2023-02-22T06:54:27.365Z,8.60
2023-02-22T06:59:30.433Z,9.40
2023-02-22T07:04:33.473Z,11.50
2023-02-22T07:09:36.582Z,10.90
2023-02-22T07:14:40.200Z,28.00
2023-02-22T07:19:43.218Z,11.40
2023-02-22T07:24:48.059Z,10.20
2023-02-22T07:29:50.963Z,28.20
2023-02-22T07:34:54.076Z,22.60
2023-02-22T07:39:56.978Z,17.20
2023-02-22T07:45:00.105Z,13.80
2023-02-22T07:50:03.195Z,24.00
2023-02-22T07:55:07.302Z,22.70
2023-02-22T08:00:11.595Z,13.20
2023-02-22T08:05:15.258Z,10.60
2023-02-22T08:10:22.492Z,12.10
2023-02-22T08:15:29.397Z,8.40
2023-02-22T08:20:32.293Z,10.50
2023-02-22T08:25:36.160Z,34.30
2023-02-22T08:30:40.774Z,14.90
2023-02-22T08:35:43.970Z,10.40
2023-02-22T08:40:48.418Z,13.40
2023-02-22T08:45:52.207Z,15.20
2023-02-22T08:50:55.617Z,23.60
2023-02-22T08:55:58.557Z,13.70
2023-02-22T09:01:01.769Z,14.20
2023-02-22T09:06:06.625Z,16.40
2023-02-22T09:11:09.719Z,16.80
2023-02-22T09:16:12.966Z,16.10
2023-02-22T09:21:16.267Z,17.60
2023-02-22T09:26:19.463Z,18.10
2023-02-22T09:31:24.627Z,15.40
2023-02-22T09:36:27.721Z,14.10
2023-02-22T09:41:40.054Z,12.30
2023-02-22T09:46:46.110Z,15.60
2023-02-22T09:52:01.321Z,17.30
2023-02-22T09:57:13.790Z,13.90
2023-02-22T10:02:35.288Z,9.60
2023-02-22T10:07:59.600Z,9.30
2023-02-22T10:13:31.225Z,11.20
2023-02-22T10:19:08.211Z,8.20
2023-02-22T10:24:48.881Z,9.70
2023-02-22T10:30:05.599Z,10.30
2023-02-22T10:35:41.443Z,7.70
2023-02-22T10:40:50.927Z,9.60
2023-02-22T10:45:58.043Z,12.50
2023-02-22T10:51:06.343Z,9.70
2023-02-22T10:56:20.773Z,10.10
2023-02-22T11:01:32.731Z,7.50
2023-02-22T11:06:36.073Z,9.50
2023-02-22T11:11:46.086Z,7.80
2023-02-22T11:16:53.736Z,7.80
2023-02-22T11:22:08.229Z,12.70
2023-02-22T11:27:40.834Z,6.90
2023-02-22T11:32:50.661Z,6.30
2023-02-22T11:37:54.117Z,14.20
2023-02-22T11:43:08.534Z,7.20
2023-02-22T11:48:21.145Z,4.30
2023-02-22T11:53:32.234Z,4.80
2023-02-22T11:58:58.154Z,5.00
2023-02-22T12:04:07.275Z,8.90
2023-02-22T12:09:46.972Z,4.50
2023-02-22T12:15:14.149Z,7.90
2023-02-22T12:20:40.607Z,11.80
2023-02-22T12:26:09.171Z,4.80
2023-02-22T12:31:25.451Z,8.40
2023-02-22T12:36:39.594Z,9.30
2023-02-22T12:41:45.846Z,5.40
2023-02-22T12:46:55.131Z,7.00
2023-02-22T12:52:21.364Z,6.60
2023-02-22T12:58:02.287Z,7.80
2023-02-22T13:03:24.752Z,7.70
2023-02-22T13:08:51.813Z,7.10
2023-02-22T13:14:13.879Z,9.30
2023-02-22T13:19:49.956Z,6.50
2023-02-22T13:25:11.991Z,8.20
2023-02-22T13:30:21.666Z,8.70
2023-02-22T13:35:35.729Z,7.30
2023-02-22T13:41:03.521Z,6.80
2023-02-22T13:46:27.656Z,7.20
2023-02-22T13:51:47.516Z,6.70
2023-02-22T13:56:52.603Z,6.80
2023-02-22T14:01:56.514Z,5.30
2023-02-22T14:07:18.455Z,4.20
2023-02-22T14:12:30.813Z,6.10
2023-02-22T14:17:34.176Z,4.70
2023-02-22T14:22:37.215Z,7.60
2023-02-22T14:27:41.635Z,7.80
2023-02-22T14:32:44.846Z,9.80
2023-02-22T14:37:58.098Z,8.40
2023-02-22T14:43:06.640Z,8.50
2023-02-22T14:48:25.189Z,7.90
2023-02-22T14:53:40.556Z,6.00
2023-02-22T14:58:52.278Z,8.10
2023-02-22T15:04:07.139Z,7.70
2023-02-22T15:09:27.705Z,7.30
2023-02-22T15:14:38.049Z,6.40
2023-02-22T15:19:42.391Z,8.20
2023-02-22T15:24:58.959Z,8.20
2023-02-22T15:30:23.727Z,7.90
2023-02-22T15:35:30.268Z,6.10
2023-02-22T15:40:34.922Z,6.70
2023-02-22T15:45:43.309Z,8.20
2023-02-22T15:51:04.691Z,9.00
2023-02-22T15:56:30.063Z,7.30
2023-02-22T16:01:42.681Z,10.30
2023-02-22T16:06:47.705Z,10.20
2023-02-22T16:11:51.007Z,9.40
2023-02-22T16:17:15.960Z,10.90
2023-02-22T16:22:35.255Z,10.20
2023-02-22T16:27:47.656Z,11.20
2023-02-22T16:32:52.012Z,10.70
2023-02-22T16:37:58.479Z,8.40
2023-02-22T16:43:24.784Z,11.20
2023-02-22T16:48:33.050Z,20.10
2023-02-22T16:53:37.188Z,18.80
2023-02-22T16:58:41.612Z,30.00
2023-02-22T17:03:45.045Z,24.20
2023-02-22T17:08:48.934Z,20.70
2023-02-22T17:13:51.978Z,15.50
2023-02-22T17:18:54.890Z,17.10
2023-02-22T17:23:57.890Z,17.00
2023-02-22T17:29:01.001Z,19.00
2023-02-22T17:34:05.476Z,22.10
2023-02-22T17:39:10.873Z,16.10
2023-02-22T17:44:14.005Z,22.40
2023-02-22T17:49:17.016Z,15.70
2023-02-22T17:54:20.120Z,12.40
2023-02-22T17:59:23.228Z,13.20
2023-02-22T18:04:26.448Z,12.00
2023-02-22T18:09:29.888Z,13.20
2023-02-22T18:14:34.325Z,20.70
2023-02-22T18:19:37.402Z,15.30
2023-02-22T18:24:40.630Z,12.40
2023-02-22T18:29:43.826Z,14.30
2023-02-22T18:34:47.147Z,14.90
2023-02-22T18:39:50.283Z,16.30
2023-02-22T18:44:54.796Z,14.40
2023-02-22T18:49:57.803Z,12.30
2023-02-22T18:55:01.329Z,13.90
2023-02-22T19:00:07.729Z,13.00
2023-02-22T19:05:12.573Z,11.40
2023-02-22T19:10:15.765Z,13.10
2023-02-22T19:15:18.998Z,10.80
2023-02-22T19:20:22.092Z,10.30
2023-02-22T19:25:25.607Z,9.40
2023-02-22T19:30:28.813Z,10.00
2023-02-22T19:35:32.025Z,12.20
2023-02-22T19:40:34.931Z,9.70
2023-02-22T19:45:40.224Z,11.40
2023-02-22T19:50:49.441Z,10.80
2023-02-22T19:55:52.447Z,10.50
2023-02-22T20:00:55.347Z,13.00
2023-02-22T20:05:58.598Z,11.00
2023-02-22T20:11:01.566Z,9.20
2023-02-22T20:16:05.241Z,10.50
2023-02-22T20:21:10.214Z,12.90
2023-02-22T20:26:24.947Z,10.90
2023-02-22T20:31:29.739Z,10.10
2023-02-22T20:36:37.098Z,9.20
2023-02-22T20:41:42.647Z,8.70
2023-02-22T20:46:46.870Z,9.70
2023-02-22T20:51:49.890Z,8.10
2023-02-22T20:56:53.211Z,11.20
2023-02-22T21:01:56.418Z,11.50
2023-02-22T21:07:03.488Z,12.60
2023-02-22T21:12:13.434Z,7.20
2023-02-22T21:17:21.823Z,8.80
2023-02-22T21:22:25.468Z,8.40
2023-02-22T21:27:28.552Z,7.80
2023-02-22T21:32:31.696Z,9.60
2023-02-22T21:37:34.767Z,9.50
2023-02-22T21:42:38.194Z,9.20
2023-02-22T21:47:41.600Z,8.60
2023-02-22T21:52:47.154Z,11.10
2023-02-22T21:57:50.397Z,13.50
2023-02-22T22:02:53.423Z,12.20
2023-02-22T22:07:56.599Z,12.20
2023-02-22T22:13:00.246Z,11.70
2023-02-22T22:18:06.773Z,11.20
2023-02-22T22:23:09.821Z,13.40
2023-02-22T22:28:12.721Z,9.50
2023-02-22T22:33:15.817Z,8.20
2023-02-22T22:38:20.879Z,15.90
2023-02-22T22:43:23.775Z,9.90
2023-02-22T22:48:28.215Z,9.70
2023-02-22T22:53:35.221Z,12.60
2023-02-22T22:58:38.224Z,10.50
2023-02-22T23:03:43.730Z,11.20
2023-02-22T23:08:46.924Z,8.60
2023-02-22T23:13:50.309Z,13.20
2023-02-22T23:18:53.530Z,12.40
2023-02-22T23:23:58.743Z,8.10
2023-02-22T23:29:02.896Z,10.20
2023-02-22T23:34:11.302Z,12.00
2023-02-22T23:39:17.005Z,8.70
2023-02-22T23:44:21.663Z,8.40
2023-02-22T23:49:36.078Z,6.70
2023-02-22T23:54:44.122Z,6.70
2023-02-22T23:59:50.738Z,5.30
